createdAt,value
2019-04-20T00:00:51.505Z,1.84
2019-04-20T00:03:23.712Z,1.92
2019-04-20T00:05:53.115Z,2.08
2019-04-20T00:08:27.928Z,2.01
2019-04-20T00:11:04.254Z,1.94
2019-04-20T00:13:43.781Z,1.85
2019-04-20T00:16:14.837Z,1.92
2019-04-20T00:18:50.376Z,1.80
2019-04-20T00:21:46.418Z,1.62
2019-04-20T00:24:22.852Z,1.57
2019-04-20T00:29:42.356Z,1.60
2019-04-20T00:32:04.201Z,1.60
2019-04-20T00:34:30.078Z,1.47
2019-04-20T00:36:58.127Z,1.36
2019-04-20T00:39:29.845Z,1.32
2019-04-20T00:42:06.148Z,1.42
2019-04-20T00:44:36.230Z,1.51
2019-04-20T00:47:18.091Z,1.50
2019-04-20T00:49:50.949Z,1.42
2019-04-20T00:52:29.099Z,1.27
2019-04-20T00:54:41.266Z,1.19
2019-04-20T00:57:23.596Z,1.36
2019-04-20T01:00:04.950Z,1.37
2019-04-20T01:02:30.178Z,1.19
2019-04-20T01:05:04.003Z,1.14
2019-04-20T01:07:45.577Z,1.03
2019-04-20T01:10:13.553Z,0.95
2019-04-20T01:12:45.723Z,0.85
2019-04-20T01:15:26.783Z,0.85
2019-04-20T01:17:49.996Z,0.84
2019-04-20T01:20:22.632Z,0.90
2019-04-20T01:23:00.172Z,0.84
2019-04-20T01:25:32.368Z,0.78
2019-04-20T01:28:11.905Z,0.89
2019-04-20T01:30:37.574Z,0.93
2019-04-20T01:33:16.225Z,0.83
2019-04-20T01:35:50.106Z,0.76
2019-04-20T01:38:26.512Z,0.68
2019-04-20T01:40:40.248Z,0.61
2019-04-20T01:43:10.646Z,0.80
2019-04-20T01:45:43.944Z,0.89
2019-04-20T01:48:20.233Z,0.85
2019-04-20T01:50:55.076Z,0.74
2019-04-20T01:53:39.355Z,0.64
2019-04-20T01:56:15.362Z,0.52
2019-04-20T01:58:58.171Z,0.45
2019-04-20T02:01:36.199Z,0.41
2019-04-20T02:04:17.107Z,0.36
2019-04-20T02:06:47.194Z,0.30
2019-04-20T02:09:19.188Z,0.27
2019-04-20T02:11:48.796Z,0.21
2019-04-20T02:14:26.220Z,0.19
2019-04-20T02:17:03.185Z,0.18
2019-04-20T02:19:37.872Z,0.17
2019-04-20T02:22:09.915Z,0.33
2019-04-20T02:24:28.319Z,0.28
2019-04-20T02:26:59.885Z,0.25
2019-04-20T02:29:50.971Z,0.25
2019-04-20T02:32:42.305Z,0.18
2019-04-20T02:35:25.630Z,0.12
2019-04-20T02:43:38.924Z,-0.02
2019-04-20T02:48:21.621Z,0.12
2019-04-20T02:50:50.119Z,0.27
2019-04-20T02:53:51.116Z,0.14
2019-04-20T02:56:00.132Z,0.36
2019-04-20T03:00:55.482Z,0.39
2019-04-20T03:03:16.347Z,0.24
2019-04-20T03:05:45.431Z,0.14
2019-04-20T03:08:22.133Z,0.07
2019-04-20T03:11:03.692Z,-0.03
2019-04-20T03:13:32.263Z,-0.09
2019-04-20T03:16:08.671Z,-0.12
2019-04-20T03:18:35.036Z,-0.15
2019-04-20T03:21:12.765Z,-0.14
2019-04-20T03:23:47.996Z,-0.14
2019-04-20T03:26:16.145Z,-0.12
2019-04-20T03:29:18.357Z,-0.16
2019-04-20T03:35:00.599Z,-0.26
2019-04-20T03:37:20.408Z,-0.28
2019-04-20T03:39:40.741Z,-0.32
2019-04-20T03:42:00.471Z,-0.33
2019-04-20T03:44:35.981Z,-0.32
2019-04-20T03:47:10.313Z,-0.34
2019-04-20T03:50:02.717Z,-0.33
2019-04-20T03:52:59.129Z,-0.29
2019-04-20T03:55:34.185Z,-0.29
2019-04-20T03:58:14.042Z,-0.28
2019-04-20T04:01:08.273Z,-0.19
2019-04-20T04:03:59.166Z,-0.19
2019-04-20T04:06:22.829Z,-0.14
2019-04-20T04:08:58.117Z,-0.10
2019-04-20T04:11:31.162Z,-0.08
2019-04-20T04:13:48.538Z,-0.05
2019-04-20T04:16:21.948Z,0.04
2019-04-20T04:19:01.383Z,0.06
2019-04-20T04:21:41.184Z,0.13
2019-04-20T04:24:09.438Z,0.16
2019-04-20T04:26:44.166Z,0.21
2019-04-20T04:29:28.838Z,0.29
2019-04-20T04:32:01.358Z,0.43
2019-04-20T04:34:30.830Z,0.54
2019-04-20T04:37:03.253Z,0.69
2019-04-20T04:39:36.966Z,0.81
2019-04-20T04:42:14.208Z,0.91
2019-04-20T04:44:33.551Z,0.97
2019-04-20T04:46:56.050Z,1.05
2019-04-20T04:49:28.503Z,1.13
2019-04-20T04:52:02.165Z,1.24
2019-04-20T04:54:37.686Z,1.39
2019-04-20T04:57:01.017Z,1.52
2019-04-20T04:59:31.733Z,1.70
2019-04-20T05:02:03.324Z,1.84
2019-04-20T05:05:30.868Z,2.01
2019-04-20T05:07:57.578Z,2.21
2019-04-20T05:10:16.148Z,2.54
2019-04-20T05:12:50.208Z,2.77
2019-04-20T05:15:37.612Z,3.01
2019-04-20T05:18:13.105Z,3.20
2019-04-20T05:20:54.682Z,3.36
2019-04-20T05:23:28.192Z,3.41
2019-04-20T05:26:22.665Z,3.47
2019-04-20T05:28:45.026Z,3.55
2019-04-20T05:31:06.322Z,3.61
2019-04-20T05:34:03.928Z,3.72
2019-04-20T05:36:31.026Z,3.83
2019-04-20T05:39:11.715Z,4.05
2019-04-20T05:41:32.830Z,4.22
2019-04-20T05:44:16.933Z,4.47
2019-04-20T05:46:56.870Z,4.78
2019-04-20T05:49:25.799Z,5.02
2019-04-20T05:52:07.758Z,5.14
2019-04-20T05:54:32.635Z,5.21
2019-04-20T05:57:17.476Z,5.21
2019-04-20T05:59:45.030Z,5.50
2019-04-20T06:02:16.896Z,5.74
2019-04-20T06:07:21.145Z,6.22
2019-04-20T06:09:54.457Z,6.14
2019-04-20T06:12:33.099Z,6.12
2019-04-20T06:15:08.308Z,6.28
2019-04-20T06:17:57.981Z,6.40
2019-04-20T06:20:37.986Z,6.49
2019-04-20T06:23:34.526Z,6.91
2019-04-20T06:26:20.550Z,7.62
2019-04-20T06:28:26.942Z,8.26
2019-04-20T06:30:56.863Z,8.71
2019-04-20T06:34:41.363Z,8.83
2019-04-20T06:37:12.540Z,8.74
2019-04-20T06:39:37.018Z,8.72
2019-04-20T06:42:14.732Z,8.79
2019-04-20T06:45:02.086Z,8.65
2019-04-20T06:49:42.467Z,9.15
2019-04-20T06:52:29.776Z,9.34
2019-04-20T06:55:03.042Z,9.62
2019-04-20T07:02:44.290Z,11.14
2019-04-20T07:05:18.751Z,11.10
2019-04-20T07:10:35.848Z,11.36
2019-04-20T07:12:56.567Z,11.62
2019-04-20T07:15:46.474Z,12.02
2019-04-20T07:18:29.996Z,12.45
2019-04-20T07:21:07.178Z,12.63
2019-04-20T07:23:42.212Z,12.92
2019-04-20T07:26:17.034Z,13.27
2019-04-20T07:28:46.916Z,14.31
2019-04-20T07:31:13.124Z,15.22
2019-04-20T07:33:46.660Z,15.91
2019-04-20T07:36:26.589Z,15.79
2019-04-20T07:38:57.950Z,16.06
2019-04-20T07:41:32.975Z,16.13
2019-04-20T07:44:03.527Z,16.30
2019-04-20T07:46:47.175Z,15.77
2019-04-20T07:49:07.330Z,16.10
2019-04-20T07:51:23.116Z,16.33
2019-04-20T07:54:21.999Z,16.24
2019-04-20T07:56:42.322Z,16.25
2019-04-20T07:58:58.689Z,16.47
2019-04-20T08:02:32.418Z,16.73
2019-04-20T08:04:56.356Z,17.09
2019-04-20T08:07:14.610Z,16.67
2019-04-20T08:09:53.279Z,16.18
2019-04-20T08:12:51.719Z,16.24
2019-04-20T08:15:33.467Z,16.36
2019-04-20T08:17:56.903Z,17.11
2019-04-20T08:20:19.962Z,17.98
2019-04-20T08:22:58.710Z,20.03
2019-04-20T08:25:25.291Z,21.24
2019-04-20T08:27:59.122Z,21.74
2019-04-20T08:31:06.675Z,21.60
2019-04-20T08:33:47.169Z,21.91
2019-04-20T08:36:17.046Z,21.20
2019-04-20T08:39:06.429Z,21.89
2019-04-20T08:41:17.982Z,23.00
2019-04-20T08:44:06.433Z,24.40
2019-04-20T08:46:27.843Z,24.74
2019-04-20T08:48:58.167Z,25.60
2019-04-20T08:51:31.786Z,26.31
2019-04-20T08:54:00.007Z,26.71
2019-04-20T08:56:24.604Z,26.94
2019-04-20T08:58:45.750Z,27.04
2019-04-20T09:01:23.655Z,26.89
2019-04-20T09:03:59.025Z,26.62
2019-04-20T09:06:39.951Z,26.03
2019-04-20T09:09:29.089Z,25.74
2019-04-20T09:11:49.256Z,26.57
2019-04-20T09:14:23.665Z,27.89
2019-04-20T09:17:07.917Z,27.56
2019-04-20T09:19:45.426Z,27.56
2019-04-20T09:22:34.088Z,28.18
2019-04-20T09:25:42.716Z,28.25
2019-04-20T09:27:45.841Z,29.02
2019-04-20T09:30:29.279Z,29.03
2019-04-20T09:33:09.276Z,28.61
2019-04-20T09:35:43.285Z,28.99
2019-04-20T09:38:11.789Z,28.91
2019-04-20T09:40:50.356Z,29.37
2019-04-20T09:43:28.585Z,29.35
2019-04-20T09:46:03.663Z,29.28
2019-04-20T09:48:40.793Z,28.88
2019-04-20T09:51:30.778Z,30.33
2019-04-20T09:53:50.569Z,30.86
2019-04-20T09:56:32.416Z,30.73
2019-04-20T09:59:08.185Z,30.55
2019-04-20T10:01:31.187Z,29.65
2019-04-20T10:03:52.732Z,30.40
2019-04-20T10:06:27.267Z,30.82
2019-04-20T10:08:58.303Z,32.39
2019-04-20T10:11:30.031Z,31.76
2019-04-20T10:14:02.059Z,31.97
2019-04-20T10:16:33.890Z,32.90
2019-04-20T10:19:10.508Z,31.64
2019-04-20T10:21:40.027Z,32.04
2019-04-20T10:24:10.667Z,31.74
2019-04-20T10:26:41.085Z,32.22
2019-04-20T10:29:11.582Z,31.89
2019-04-20T10:31:50.489Z,32.51
2019-04-20T10:34:20.692Z,31.87
2019-04-20T10:37:09.389Z,31.68
2019-04-20T10:39:42.897Z,31.92
2019-04-20T10:42:18.620Z,32.93
2019-04-20T10:44:55.311Z,32.66
2019-04-20T10:47:25.416Z,32.89
2019-04-20T10:49:56.503Z,32.60
2019-04-20T10:52:29.790Z,32.59
2019-04-20T10:55:02.850Z,32.65
2019-04-20T10:57:37.632Z,32.90
2019-04-20T11:00:09.869Z,33.51
2019-04-20T11:02:44.209Z,34.01
2019-04-20T11:05:16.939Z,33.08
2019-04-20T11:07:52.551Z,33.19
2019-04-20T11:10:28.804Z,31.87
2019-04-20T11:12:57.243Z,31.31
2019-04-20T11:15:36.592Z,32.17
2019-04-20T11:18:13.875Z,32.88
2019-04-20T11:20:55.314Z,33.40
2019-04-20T11:23:29.033Z,33.46
2019-04-20T11:26:02.305Z,34.51
2019-04-20T11:28:35.816Z,32.58
2019-04-20T11:31:10.243Z,32.53
2019-04-20T11:34:00.365Z,32.33
2019-04-20T11:36:33.014Z,32.26
2019-04-20T11:39:07.219Z,32.67
2019-04-20T11:41:41.528Z,33.79
2019-04-20T11:44:13.783Z,33.22
2019-04-20T11:46:44.932Z,33.72
2019-04-20T11:49:28.084Z,33.68
2019-04-20T11:52:03.622Z,32.90
2019-04-20T11:54:48.521Z,33.27
2019-04-20T11:57:22.803Z,32.81
2019-04-20T11:59:54.926Z,32.80
2019-04-20T12:02:43.912Z,31.82
2019-04-20T12:05:32.447Z,32.40
2019-04-20T12:08:05.159Z,32.60
2019-04-20T12:10:37.103Z,33.69
2019-04-20T12:13:10.235Z,34.20
2019-04-20T12:15:41.847Z,32.96
2019-04-20T12:18:15.790Z,33.86
2019-04-20T12:20:47.055Z,32.99
2019-04-20T12:23:18.176Z,32.43
2019-04-20T12:25:52.722Z,33.55
2019-04-20T12:28:29.581Z,33.25
2019-04-20T12:31:11.403Z,32.41
2019-04-20T12:33:34.621Z,32.81
2019-04-20T12:36:08.238Z,32.87
2019-04-20T12:38:51.353Z,31.92
2019-04-20T12:41:34.427Z,31.45
2019-04-20T12:44:15.429Z,32.03
2019-04-20T12:46:54.021Z,31.83
2019-04-20T12:49:31.835Z,30.41
2019-04-20T12:52:05.136Z,31.22
2019-04-20T12:54:34.594Z,31.65
2019-04-20T12:57:12.162Z,32.13
2019-04-20T12:59:54.070Z,32.23
2019-04-20T13:02:31.537Z,32.06
2019-04-20T13:05:07.215Z,30.63
2019-04-20T13:07:39.661Z,30.34
2019-04-20T13:10:09.878Z,30.08
2019-04-20T13:13:00.582Z,30.70
2019-04-20T13:15:50.545Z,31.18
2019-04-20T13:18:27.342Z,31.89
2019-04-20T13:21:01.769Z,31.44
2019-04-20T13:23:37.260Z,31.86
2019-04-20T13:26:12.272Z,31.76
2019-04-20T13:28:46.768Z,31.55
2019-04-20T13:31:19.956Z,30.82
2019-04-20T13:33:53.209Z,31.18
2019-04-20T13:36:24.266Z,32.18
2019-04-20T13:38:59.670Z,31.87
2019-04-20T13:41:33.748Z,30.04
2019-04-20T13:44:08.374Z,30.99
2019-04-20T13:46:42.659Z,31.16
2019-04-20T13:49:13.236Z,30.23
2019-04-20T13:51:44.570Z,30.84
2019-04-20T13:54:18.869Z,30.56
2019-04-20T13:56:49.018Z,30.85
2019-04-20T13:59:40.794Z,30.10
2019-04-20T14:02:28.950Z,29.66
2019-04-20T14:05:04.655Z,29.95
2019-04-20T14:07:51.394Z,29.83
2019-04-20T14:10:21.918Z,30.09
2019-04-20T14:13:00.553Z,29.85
2019-04-20T14:15:27.003Z,29.85
2019-04-20T14:17:59.391Z,29.27
2019-04-20T14:20:32.409Z,29.27
2019-04-20T14:23:03.163Z,29.42
2019-04-20T14:25:33.755Z,29.75
2019-04-20T14:28:04.926Z,30.28
2019-04-20T14:30:35.433Z,30.21
2019-04-20T14:33:05.985Z,29.73
2019-04-20T14:35:38.818Z,29.69
2019-04-20T14:38:09.903Z,28.96
2019-04-20T14:40:40.428Z,28.96
2019-04-20T14:43:13.083Z,28.79
2019-04-20T14:45:45.222Z,28.74
2019-04-20T14:48:16.370Z,28.98
2019-04-20T14:50:49.637Z,28.27
2019-04-20T14:53:23.315Z,27.97
2019-04-20T14:55:55.819Z,27.56
2019-04-20T14:58:45.667Z,27.93
2019-04-20T15:01:30.213Z,28.20
2019-04-20T15:04:06.871Z,28.04
2019-04-20T15:06:36.169Z,27.34
2019-04-20T15:09:10.623Z,27.74
2019-04-20T15:11:47.059Z,27.52
2019-04-20T15:14:18.689Z,28.25
2019-04-20T15:16:50.744Z,28.21
2019-04-20T15:19:39.138Z,27.65
2019-04-20T15:22:27.437Z,26.11
2019-04-20T15:24:59.976Z,25.09
2019-04-20T15:27:33.208Z,25.03
2019-04-20T15:30:06.814Z,24.45
2019-04-20T15:32:40.952Z,24.03
2019-04-20T15:35:13.472Z,23.66
2019-04-20T15:37:45.107Z,23.24
2019-04-20T15:40:17.289Z,21.54
2019-04-20T15:42:56.612Z,21.17
2019-04-20T15:45:21.175Z,21.37
2019-04-20T15:47:52.225Z,21.13
2019-04-20T15:50:23.750Z,21.42
2019-04-20T15:52:55.318Z,20.78
2019-04-20T15:55:31.140Z,20.25
2019-04-20T15:58:04.627Z,20.16
2019-04-20T16:00:34.239Z,19.77
2019-04-20T16:03:17.512Z,19.52
2019-04-20T16:05:56.506Z,19.34
2019-04-20T16:08:32.442Z,18.90
2019-04-20T16:11:04.924Z,18.93
2019-04-20T16:13:40.231Z,18.79
2019-04-20T16:16:09.955Z,18.81
2019-04-20T16:18:41.068Z,18.33
2019-04-20T16:21:20.949Z,17.91
2019-04-20T16:24:10.903Z,17.76
2019-04-20T16:27:14.140Z,17.90
2019-04-20T16:29:47.424Z,18.09
2019-04-20T16:32:18.440Z,17.92
2019-04-20T16:34:50.599Z,17.46
2019-04-20T16:37:22.325Z,17.45
2019-04-20T16:39:52.838Z,17.24
2019-04-20T16:42:24.435Z,16.95
2019-04-20T16:44:59.128Z,16.74
2019-04-20T16:47:36.927Z,16.71
2019-04-20T16:50:08.854Z,16.46
2019-04-20T16:52:40.963Z,16.36
2019-04-20T16:55:16.608Z,16.17
2019-04-20T16:57:51.701Z,16.21
2019-04-20T17:00:23.453Z,15.99
2019-04-20T17:02:54.365Z,15.85
2019-04-20T17:05:25.788Z,15.64
2019-04-20T17:07:57.340Z,15.38
2019-04-20T17:10:30.716Z,15.22
2019-04-20T17:13:04.088Z,14.93
2019-04-20T17:15:34.870Z,14.81
2019-04-20T17:18:07.597Z,14.63
2019-04-20T17:20:40.992Z,14.42
2019-04-20T17:23:13.283Z,14.22
2019-04-20T17:25:43.859Z,14.12
2019-04-20T17:28:28.978Z,14.01
2019-04-20T17:31:17.562Z,13.90
2019-04-20T17:34:01.519Z,13.78
2019-04-20T17:36:29.856Z,13.63
2019-04-20T17:39:06.212Z,13.58
2019-04-20T17:42:00.375Z,13.47
2019-04-20T17:44:30.277Z,13.32
2019-04-20T17:46:59.134Z,13.17
2019-04-20T17:49:31.525Z,13.05
2019-04-20T17:52:22.313Z,13.01
2019-04-20T17:54:35.481Z,12.91
2019-04-20T17:57:10.965Z,12.78
2019-04-20T17:59:55.356Z,12.57
2019-04-20T18:02:59.295Z,12.60
2019-04-20T18:05:58.171Z,12.49
2019-04-20T18:08:27.270Z,12.35
2019-04-20T18:10:53.220Z,12.23
2019-04-20T18:13:18.513Z,12.16
2019-04-20T18:16:04.625Z,12.04
2019-04-20T18:18:50.349Z,11.89
2019-04-20T18:21:28.784Z,11.84
2019-04-20T18:24:00.463Z,11.67
2019-04-20T18:26:51.961Z,11.56
2019-04-20T18:29:26.089Z,11.48
2019-04-20T18:31:44.941Z,11.29
2019-04-20T18:34:27.332Z,11.12
2019-04-20T18:37:07.687Z,11.01
2019-04-20T18:39:41.393Z,10.93
2019-04-20T18:42:14.292Z,10.90
2019-04-20T18:44:57.136Z,10.74
2019-04-20T18:47:33.231Z,10.57
2019-04-20T18:49:55.182Z,10.46
2019-04-20T18:52:15.821Z,10.41
2019-04-20T18:54:48.404Z,10.43
2019-04-20T18:57:26.954Z,10.44
2019-04-20T18:59:54.800Z,10.35
2019-04-20T19:02:30.872Z,10.23
2019-04-20T19:05:01.377Z,10.21
2019-04-20T19:07:40.142Z,10.09
2019-04-20T19:10:14.559Z,9.99
2019-04-20T19:12:46.156Z,9.87
2019-04-20T19:15:55.184Z,9.82
2019-04-20T19:20:59.580Z,9.71
2019-04-20T19:23:36.594Z,9.58
2019-04-20T19:26:11.951Z,9.53
2019-04-20T19:28:45.098Z,9.39
2019-04-20T19:31:28.720Z,9.28
2019-04-20T19:34:13.003Z,9.23
2019-04-20T19:36:34.154Z,9.22
2019-04-20T19:39:15.197Z,9.12
2019-04-20T19:41:42.233Z,9.08
2019-04-20T19:44:13.127Z,8.99
2019-04-20T19:47:05.371Z,8.95
2019-04-20T19:49:24.416Z,8.85
2019-04-20T19:52:16.034Z,8.62
2019-04-20T19:54:38.979Z,8.71
2019-04-20T19:57:01.297Z,8.72
2019-04-20T19:59:31.018Z,8.52
2019-04-20T20:01:53.767Z,8.32
2019-04-20T20:04:25.759Z,8.23
2019-04-20T20:07:05.158Z,8.13
2019-04-20T20:09:37.875Z,8.37
2019-04-20T20:12:11.896Z,8.42
2019-04-20T20:14:46.098Z,8.38
2019-04-20T20:17:32.879Z,8.20
2019-04-20T20:20:14.704Z,8.16
2019-04-20T20:22:27.843Z,8.15
2019-04-20T20:24:51.230Z,8.18
2019-04-20T20:27:31.499Z,8.05
2019-04-20T20:30:07.032Z,8.05
2019-04-20T20:32:47.047Z,7.91
2019-04-20T20:35:11.123Z,7.97
2019-04-20T20:37:42.471Z,7.92
2019-04-20T20:40:19.905Z,7.85
2019-04-20T20:42:52.642Z,7.98
2019-04-20T20:45:22.995Z,7.94
2019-04-20T20:48:03.885Z,7.91
2019-04-20T20:50:42.730Z,7.81
2019-04-20T20:53:05.043Z,7.70
2019-04-20T20:55:32.141Z,7.55
2019-04-20T20:58:08.502Z,7.42
2019-04-20T21:00:38.797Z,7.31
2019-04-20T21:03:06.230Z,7.34
2019-04-20T21:05:37.649Z,7.28
2019-04-20T21:08:08.515Z,7.13
2019-04-20T21:10:42.908Z,7.29
2019-04-20T21:13:16.948Z,7.19
2019-04-20T21:15:53.914Z,7.42
2019-04-20T21:18:43.525Z,7.39
2019-04-20T21:21:06.263Z,7.27
2019-04-20T21:23:40.446Z,7.37
2019-04-20T21:26:20.299Z,7.29
2019-04-20T21:28:45.793Z,7.28
2019-04-20T21:31:23.478Z,7.27
2019-04-20T21:33:51.072Z,7.22
2019-04-20T21:36:26.230Z,7.22
2019-04-20T21:38:53.941Z,7.13
2019-04-20T21:41:26.073Z,7.21
2019-04-20T21:43:58.265Z,6.97
2019-04-20T21:46:36.221Z,6.90
2019-04-20T21:49:12.836Z,6.83
2019-04-20T21:51:44.327Z,6.79
2019-04-20T21:54:08.116Z,6.66
2019-04-20T21:56:46.142Z,6.67
2019-04-20T21:59:20.497Z,6.52
2019-04-20T22:01:55.069Z,6.43
2019-04-20T22:04:22.931Z,6.28
2019-04-20T22:06:56.212Z,6.14
2019-04-20T22:09:34.425Z,5.96
2019-04-20T22:12:02.115Z,6.15
2019-04-20T22:14:33.984Z,6.11
2019-04-20T22:17:05.483Z,5.98
2019-04-20T22:19:44.065Z,5.99
2019-04-20T22:22:18.519Z,5.79
2019-04-20T22:24:56.348Z,5.70
2019-04-20T22:27:22.398Z,5.41
2019-04-20T22:29:50.141Z,5.24
2019-04-20T22:32:22.576Z,5.06
2019-04-20T22:34:59.874Z,5.14
2019-04-20T22:37:30.488Z,4.96
2019-04-20T22:40:03.227Z,5.03
2019-04-20T22:42:42.887Z,4.91
2019-04-20T22:45:09.859Z,4.83
2019-04-20T22:47:39.165Z,4.63
2019-04-20T22:50:28.153Z,4.47
2019-04-20T22:52:55.914Z,4.31
2019-04-20T22:55:42.722Z,4.28
2019-04-20T22:58:01.311Z,4.43
2019-04-20T23:00:34.239Z,4.23
2019-04-20T23:03:00.749Z,4.29
2019-04-20T23:05:31.235Z,4.10
2019-04-20T23:08:02.487Z,4.04
2019-04-20T23:10:37.736Z,3.98
2019-04-20T23:13:05.318Z,3.96
2019-04-20T23:15:36.306Z,3.77
2019-04-20T23:18:06.662Z,3.61
2019-04-20T23:20:39.446Z,3.48
2019-04-20T23:23:12.400Z,3.70
2019-04-20T23:25:41.345Z,3.60
2019-04-20T23:28:14.779Z,3.36
2019-04-20T23:30:45.638Z,3.26
2019-04-20T23:33:18.142Z,3.09
2019-04-20T23:35:52.381Z,3.00
2019-04-20T23:38:23.178Z,3.20
2019-04-20T23:40:52.499Z,3.26
2019-04-20T23:43:33.346Z,3.20
2019-04-20T23:46:31.493Z,3.16
2019-04-20T23:49:54.429Z,3.05
2019-04-20T23:52:32.297Z,2.84
2019-04-20T23:54:51.320Z,2.95
2019-04-20T23:57:15.696Z,2.92
2019-04-20T23:59:48.644Z,2.73
